createdAt,value
2022-08-03T00:00:52.325Z,0
2022-08-03T00:01:52.570Z,0
2022-08-03T00:02:52.926Z,0
2022-08-03T00:03:52.050Z,0
2022-08-03T00:04:52.293Z,0
2022-08-03T00:06:13.457Z,0
2022-08-03T00:06:52.022Z,0
2022-08-03T00:07:58.312Z,0
2022-08-03T00:08:51.763Z,0
2022-08-03T00:09:51.495Z,0
2022-08-03T00:10:52.507Z,0
2022-08-03T00:11:55.600Z,0
2022-08-03T00:12:51.728Z,0
2022-08-03T00:13:51.970Z,0
2022-08-03T00:14:52.463Z,0
2022-08-03T00:15:52.214Z,0
2022-08-03T00:16:52.212Z,0
2022-08-03T00:18:02.901Z,0
2022-08-03T00:18:52.464Z,0
2022-08-03T00:19:52.194Z,0
2022-08-03T00:20:52.182Z,0
2022-08-03T00:21:52.436Z,0
2022-08-03T00:22:51.911Z,0
2022-08-03T00:24:01.788Z,0
2022-08-03T00:24:51.905Z,0
2022-08-03T00:25:52.401Z,0
2022-08-03T00:26:52.143Z,0
2022-08-03T00:27:55.411Z,0
2022-08-03T00:28:52.504Z,0
2022-08-03T00:30:09.447Z,0
2022-08-03T00:30:54.840Z,0
2022-08-03T00:32:13.560Z,0
2022-08-03T00:32:56.124Z,0
2022-08-03T00:34:12.410Z,0
2022-08-03T00:35:52.849Z,0
2022-08-03T00:36:02.075Z,0
2022-08-03T00:37:02.068Z,0
2022-08-03T00:38:02.064Z,0
2022-08-03T00:39:02.568Z,0
2022-08-03T00:40:10.754Z,0
2022-08-03T00:41:02.040Z,0
2022-08-03T00:42:02.552Z,0
2022-08-03T00:43:02.568Z,0
2022-08-03T00:44:02.020Z,0
2022-08-03T00:45:02.530Z,0
2022-08-03T00:46:02.532Z,0
2022-08-03T00:47:02.733Z,0
2022-08-03T00:48:01.737Z,0
2022-08-03T00:49:02.551Z,0
2022-08-03T00:50:02.309Z,0
2022-08-03T00:51:03.463Z,0
2022-08-03T00:52:01.730Z,0
2022-08-03T00:53:01.982Z,0
2022-08-03T00:54:02.218Z,0
2022-08-03T00:55:01.948Z,0
2022-08-03T00:56:02.496Z,0
2022-08-03T00:57:09.057Z,0
2022-08-03T00:58:02.451Z,0
2022-08-03T00:59:02.180Z,0
2022-08-03T01:00:02.439Z,0
2022-08-03T01:01:02.820Z,0
2022-08-03T01:02:01.934Z,0
2022-08-03T01:03:01.905Z,0
2022-08-03T01:04:01.901Z,0
2022-08-03T01:05:02.315Z,0
2022-08-03T01:06:02.133Z,0
2022-08-03T01:07:01.871Z,0
2022-08-03T01:08:02.379Z,0
2022-08-03T01:09:01.595Z,0
2022-08-03T01:10:02.381Z,0
2022-08-03T01:11:02.341Z,0
2022-08-03T01:12:10.955Z,0
2022-08-03T01:13:02.331Z,0
2022-08-03T01:14:28.522Z,0
2022-08-03T01:15:01.807Z,0
2022-08-03T01:16:02.062Z,0
2022-08-03T01:17:01.542Z,0
2022-08-03T01:18:01.804Z,0
2022-08-03T01:19:01.944Z,0
2022-08-03T01:20:02.200Z,0
2022-08-03T01:21:02.526Z,0
2022-08-03T01:22:04.002Z,0
2022-08-03T01:23:02.269Z,0
2022-08-03T01:24:02.001Z,0
2022-08-03T01:25:02.270Z,0
2022-08-03T01:26:04.184Z,0
2022-08-03T01:27:05.380Z,0
2022-08-03T01:28:01.967Z,0
2022-08-03T01:29:01.460Z,0
2022-08-03T01:30:01.481Z,0
2022-08-03T01:31:01.690Z,0
2022-08-03T01:33:11.626Z,0
2022-08-03T01:34:24.426Z,0
2022-08-03T01:35:22.267Z,0
2022-08-03T01:36:20.845Z,0
2022-08-03T01:37:21.363Z,0
2022-08-03T01:38:20.832Z,0
2022-08-03T01:39:21.248Z,0
2022-08-03T01:40:21.079Z,0
2022-08-03T01:41:20.828Z,0
2022-08-03T01:42:21.609Z,0
2022-08-03T01:44:33.387Z,0
2022-08-03T01:44:43.922Z,0
2022-08-03T01:45:43.661Z,0
2022-08-03T01:46:51.429Z,0
2022-08-03T01:47:43.895Z,0
2022-08-03T01:48:43.639Z,0
2022-08-03T01:49:44.075Z,0
2022-08-03T01:50:44.383Z,0
2022-08-03T01:52:13.172Z,0
2022-08-03T01:52:44.371Z,0
2022-08-03T01:53:44.114Z,0
2022-08-03T01:54:44.116Z,0
2022-08-03T01:55:43.885Z,0
2022-08-03T01:56:44.340Z,0
2022-08-03T01:58:14.580Z,0
2022-08-03T01:58:44.076Z,0
2022-08-03T01:59:43.808Z,0
2022-08-03T02:00:44.205Z,0
2022-08-03T02:02:43.796Z,0
2022-08-03T02:04:09.484Z,0
2022-08-03T02:04:54.374Z,0
2022-08-03T02:07:04.953Z,0
2022-08-03T02:07:14.179Z,0
2022-08-03T02:08:14.429Z,0
2022-08-03T02:09:14.420Z,0
2022-08-03T02:10:14.165Z,0
2022-08-03T02:11:14.405Z,0
2022-08-03T02:12:15.009Z,0
2022-08-03T02:13:14.161Z,0
2022-08-03T02:14:13.871Z,0
2022-08-03T02:15:16.679Z,0
2022-08-03T02:16:14.812Z,0
2022-08-03T02:17:14.353Z,0
2022-08-03T02:18:14.609Z,0
2022-08-03T02:19:14.353Z,0
2022-08-03T02:20:14.360Z,0
2022-08-03T02:22:06.761Z,0
2022-08-03T02:23:17.276Z,0
2022-08-03T02:24:17.519Z,0
2022-08-03T02:25:17.262Z,0
2022-08-03T02:26:17.251Z,0
2022-08-03T02:27:17.553Z,0
2022-08-03T02:28:17.887Z,0
2022-08-03T02:29:19.186Z,0
2022-08-03T02:30:17.475Z,0
2022-08-03T02:31:17.216Z,0
2022-08-03T02:32:18.182Z,0
2022-08-03T02:33:17.870Z,0
2022-08-03T02:34:16.929Z,0
2022-08-03T02:35:17.358Z,0
2022-08-03T02:36:17.177Z,0
2022-08-03T02:37:17.418Z,0
2022-08-03T02:38:17.418Z,0
2022-08-03T02:39:17.667Z,0
2022-08-03T02:40:16.894Z,0
2022-08-03T02:41:17.646Z,0
2022-08-03T02:42:22.395Z,0
2022-08-03T02:43:17.373Z,0
2022-08-03T02:44:17.395Z,0
2022-08-03T02:45:20.526Z,0
2022-08-03T02:46:17.600Z,0
2022-08-03T02:47:17.600Z,0
2022-08-03T02:48:17.336Z,0
2022-08-03T02:50:00.751Z,0
2022-08-03T02:51:17.571Z,0
2022-08-03T02:52:24.058Z,0
2022-08-03T02:53:17.557Z,0
2022-08-03T02:54:16.781Z,0
2022-08-03T02:55:17.043Z,0
2022-08-03T02:56:17.017Z,0
2022-08-03T02:57:17.013Z,0
2022-08-03T02:58:17.258Z,0
2022-08-03T02:59:16.998Z,0
2022-08-03T03:00:30.487Z,0
2022-08-03T03:01:17.704Z,0
2022-08-03T03:02:18.118Z,0
2022-08-03T03:03:21.880Z,0
2022-08-03T03:04:23.054Z,0
2022-08-03T03:06:10.190Z,0
2022-08-03T03:07:22.685Z,0
2022-08-03T03:08:37.422Z,0
2022-08-03T03:09:22.248Z,0
2022-08-03T03:10:22.507Z,0
2022-08-03T03:11:22.239Z,0
2022-08-03T03:12:23.011Z,0
2022-08-03T03:13:21.974Z,0
2022-08-03T03:14:38.309Z,0
2022-08-03T03:15:22.465Z,0
2022-08-03T03:16:21.685Z,0
2022-08-03T03:17:22.183Z,0
2022-08-03T03:18:27.979Z,0
2022-08-03T03:19:21.662Z,0
2022-08-03T03:20:35.103Z,0
2022-08-03T03:21:24.831Z,0
2022-08-03T03:22:23.034Z,0
2022-08-03T03:23:22.141Z,0
2022-08-03T03:24:22.553Z,0
2022-08-03T03:25:23.071Z,0
2022-08-03T03:26:22.554Z,0
2022-08-03T03:27:29.329Z,0
2022-08-03T03:28:22.777Z,0
2022-08-03T03:29:22.007Z,0
2022-08-03T03:30:22.510Z,0
2022-08-03T03:31:22.753Z,0
2022-08-03T03:32:23.639Z,0
2022-08-03T03:50:01.629Z,10
2022-08-03T03:50:59.233Z,10
2022-08-03T03:51:59.220Z,10
2022-08-03T03:52:59.460Z,10
2022-08-03T03:53:59.193Z,10
2022-08-03T03:55:05.853Z,15
2022-08-03T03:56:11.509Z,15
2022-08-03T03:56:59.160Z,15
2022-08-03T03:57:59.166Z,15
2022-08-03T03:58:59.150Z,15
2022-08-03T03:59:59.155Z,15
2022-08-03T04:00:59.877Z,15
2022-08-03T04:02:08.128Z,20
2022-08-03T04:02:58.851Z,20
2022-08-03T04:03:59.099Z,20
2022-08-03T04:04:59.083Z,20
2022-08-03T04:05:58.822Z,20
2022-08-03T04:06:59.583Z,20
2022-08-03T04:07:59.060Z,20
2022-08-03T04:08:59.309Z,25
2022-08-03T04:10:08.877Z,25
2022-08-03T04:10:59.042Z,25
2022-08-03T04:11:59.547Z,25
2022-08-03T04:12:59.763Z,25
2022-08-03T04:14:04.159Z,25
2022-08-03T04:14:59.512Z,25
2022-08-03T04:15:58.747Z,30
2022-08-03T04:16:58.988Z,30
2022-08-03T04:17:59.499Z,30
2022-08-03T04:18:59.614Z,30
2022-08-03T04:19:59.222Z,30
2022-08-03T04:20:58.963Z,30
2022-08-03T04:22:01.736Z,30
2022-08-03T04:22:59.191Z,35
2022-08-03T04:23:58.931Z,35
2022-08-03T04:24:58.918Z,35
2022-08-03T04:25:59.176Z,35
2022-08-03T04:27:02.465Z,35
2022-08-03T04:28:39.372Z,35
2022-08-03T04:29:58.879Z,40
2022-08-03T04:30:59.703Z,40
2022-08-03T04:31:59.115Z,40
2022-08-03T04:33:00.867Z,40
2022-08-03T04:33:59.123Z,40
2022-08-03T04:34:59.101Z,40
2022-08-03T04:36:11.867Z,40
2022-08-03T04:36:59.086Z,40
2022-08-03T04:37:58.816Z,45
2022-08-03T04:38:58.814Z,45
2022-08-03T04:40:02.398Z,45
2022-08-03T04:40:59.314Z,45
2022-08-03T04:42:17.322Z,45
2022-08-03T04:42:59.335Z,45
2022-08-03T04:43:58.776Z,45
2022-08-03T04:45:05.211Z,45
2022-08-03T04:45:59.039Z,50
2022-08-03T04:47:02.426Z,50
2022-08-03T04:47:59.006Z,50
2022-08-03T04:48:59.328Z,50
2022-08-03T04:49:59.242Z,50
2022-08-03T04:50:58.721Z,50
2022-08-03T04:51:58.968Z,50
2022-08-03T04:52:58.706Z,50
2022-08-03T04:53:59.509Z,50
2022-08-03T04:54:59.712Z,55
2022-08-03T04:56:03.752Z,55
2022-08-03T04:56:58.676Z,55
2022-08-03T04:57:58.665Z,55
2022-08-03T04:58:58.658Z,55
2022-08-03T05:00:06.851Z,55
2022-08-03T05:00:58.905Z,55
2022-08-03T05:01:59.879Z,55
2022-08-03T05:02:58.893Z,55
2022-08-03T05:03:58.872Z,55
2022-08-03T05:04:58.872Z,60
2022-08-03T05:06:18.660Z,60
2022-08-03T05:07:19.501Z,60
2022-08-03T05:08:03.363Z,60
2022-08-03T05:09:01.211Z,60
2022-08-03T05:10:19.693Z,60
2022-08-03T05:11:01.844Z,60
2022-08-03T05:11:58.570Z,60
2022-08-03T05:12:58.561Z,60
2022-08-03T05:13:58.804Z,60
2022-08-03T05:14:58.553Z,60
2022-08-03T05:15:58.799Z,65
2022-08-03T05:17:00.650Z,65
2022-08-03T05:17:58.287Z,65
2022-08-03T05:18:58.778Z,65
2022-08-03T05:19:58.299Z,65
2022-08-03T05:20:59.018Z,65
2022-08-03T05:22:01.869Z,65
2022-08-03T05:22:58.749Z,65
2022-08-03T05:23:58.742Z,65
2022-08-03T05:24:58.756Z,65
2022-08-03T05:25:59.483Z,65
2022-08-03T05:26:58.726Z,65
2022-08-03T05:27:58.710Z,70
2022-08-03T05:29:00.466Z,70
2022-08-03T05:30:33.708Z,70
2022-08-03T05:30:58.696Z,70
2022-08-03T05:31:58.428Z,70
2022-08-03T05:32:58.443Z,70
2022-08-03T05:33:58.981Z,70
2022-08-03T05:34:58.413Z,70
2022-08-03T05:36:12.153Z,70
2022-08-03T05:36:58.144Z,70
2022-08-03T05:38:04.266Z,70
2022-08-03T05:39:04.610Z,70
2022-08-03T05:39:58.965Z,70
2022-08-03T05:41:44.416Z,75
2022-08-03T05:42:58.673Z,75
2022-08-03T05:43:58.616Z,75
2022-08-03T05:44:58.620Z,75
2022-08-03T05:46:21.712Z,75
2022-08-03T05:46:58.615Z,75
2022-08-03T05:47:58.849Z,75
2022-08-03T05:48:59.081Z,75
2022-08-03T05:49:58.833Z,75
2022-08-03T05:50:58.297Z,75
2022-08-03T05:52:23.465Z,75
2022-08-03T05:52:59.170Z,75
2022-08-03T05:53:58.804Z,75
2022-08-03T05:55:06.324Z,75
2022-08-03T05:56:21.581Z,80
2022-08-03T05:56:58.275Z,80
2022-08-03T05:58:02.354Z,80
2022-08-03T05:58:58.277Z,80
2022-08-03T06:00:08.449Z,80
2022-08-03T06:00:58.245Z,80
2022-08-03T06:01:58.862Z,80
2022-08-03T06:02:58.748Z,80
2022-08-03T06:03:58.234Z,80
2022-08-03T06:04:58.735Z,80
2022-08-03T06:06:09.634Z,80
2022-08-03T06:06:58.481Z,80
2022-08-03T06:07:57.965Z,80
2022-08-03T06:08:58.474Z,80
2022-08-03T06:10:47.253Z,80
2022-08-03T06:11:58.706Z,80
2022-08-03T06:13:00.242Z,80
2022-08-03T06:13:58.174Z,80
2022-08-03T06:14:58.679Z,80
2022-08-03T06:15:58.175Z,80
2022-08-03T06:16:58.153Z,80
2022-08-03T06:18:03.841Z,80
2022-08-03T06:18:58.392Z,85
2022-08-03T06:19:59.199Z,85
2022-08-03T06:21:00.241Z,85
2022-08-03T06:22:00.263Z,85
2022-08-03T06:23:12.141Z,85
2022-08-03T06:24:08.711Z,85
2022-08-03T06:25:15.003Z,85
2022-08-03T06:25:58.103Z,85
2022-08-03T06:26:58.612Z,85
2022-08-03T06:27:58.349Z,85
2022-08-03T06:29:06.095Z,85
2022-08-03T06:29:58.834Z,85
2022-08-03T06:31:00.252Z,85
2022-08-03T06:31:58.359Z,85
2022-08-03T06:33:01.248Z,85
2022-08-03T06:34:43.680Z,85
2022-08-03T06:34:57.815Z,85
2022-08-03T06:35:58.310Z,85
2022-08-03T06:37:06.745Z,85
2022-08-03T06:37:58.313Z,90
2022-08-03T06:38:58.290Z,95
2022-08-03T06:39:58.184Z,100
2022-08-03T06:40:59.972Z,95
2022-08-03T06:41:58.043Z,95
2022-08-03T06:43:00.541Z,100
2022-08-03T06:44:14.928Z,105
2022-08-03T06:44:58.014Z,115
2022-08-03T06:45:58.261Z,115
2022-08-03T06:46:57.763Z,150
2022-08-03T06:47:57.998Z,175
2022-08-03T06:48:57.900Z,160
2022-08-03T06:50:31.145Z,205
2022-08-03T06:50:57.989Z,205
2022-08-03T06:52:39.602Z,170
2022-08-03T06:52:58.233Z,195
2022-08-03T06:53:57.969Z,290
2022-08-03T06:54:57.711Z,350
2022-08-03T06:56:03.841Z,355
2022-08-03T06:56:58.478Z,355
2022-08-03T06:58:03.242Z,350
2022-08-03T06:58:57.957Z,355
2022-08-03T07:00:19.879Z,360
2022-08-03T07:00:58.284Z,360
2022-08-03T07:01:58.665Z,360
2022-08-03T07:03:05.202Z,360
2022-08-03T07:04:01.870Z,360
2022-08-03T07:04:58.212Z,355
2022-08-03T07:05:57.944Z,355
2022-08-03T07:06:58.202Z,360
2022-08-03T07:07:58.457Z,360
2022-08-03T07:09:06.138Z,355
2022-08-03T07:10:09.120Z,355
2022-08-03T07:10:58.204Z,355
2022-08-03T07:11:58.209Z,355
2022-08-03T07:13:05.814Z,355
2022-08-03T07:13:58.208Z,350
2022-08-03T07:15:05.714Z,345
2022-08-03T07:16:05.433Z,345
2022-08-03T07:16:58.225Z,345
2022-08-03T07:17:58.229Z,350
2022-08-03T07:18:57.719Z,355
2022-08-03T07:19:57.986Z,350
2022-08-03T07:20:58.493Z,350
2022-08-03T07:22:07.012Z,350
2022-08-03T07:22:57.747Z,350
2022-08-03T07:23:58.000Z,355
2022-08-03T07:24:57.747Z,355
2022-08-03T07:25:58.263Z,355
2022-08-03T07:26:58.276Z,355
2022-08-03T07:28:03.442Z,355
2022-08-03T07:28:57.765Z,355
2022-08-03T07:29:57.781Z,360
2022-08-03T07:30:58.300Z,355
2022-08-03T07:31:58.304Z,360
2022-08-03T07:32:59.757Z,360
2022-08-03T07:33:58.638Z,370
2022-08-03T07:35:24.184Z,360
2022-08-03T07:35:58.338Z,355
2022-08-03T07:36:58.337Z,355
2022-08-03T07:38:04.190Z,330
2022-08-03T07:38:57.842Z,285
2022-08-03T07:39:58.513Z,235
2022-08-03T07:40:58.370Z,200
2022-08-03T07:41:58.663Z,175
2022-08-03T07:43:02.542Z,155
2022-08-03T07:43:57.898Z,145
2022-08-03T07:44:58.148Z,140
2022-08-03T07:45:58.419Z,140
2022-08-03T07:47:05.608Z,135
2022-08-03T07:48:03.142Z,130
2022-08-03T07:48:58.353Z,130
2022-08-03T07:49:58.722Z,125
2022-08-03T07:50:58.209Z,125
2022-08-03T07:51:58.724Z,125
2022-08-03T07:52:58.568Z,120
2022-08-03T07:54:02.397Z,120
2022-08-03T07:54:58.502Z,120
2022-08-03T07:55:58.502Z,120
2022-08-03T07:56:58.777Z,120
2022-08-03T07:57:58.270Z,120
2022-08-03T07:58:58.527Z,120
2022-08-03T08:00:11.065Z,120
2022-08-03T08:00:58.890Z,120
2022-08-03T08:01:58.236Z,120
2022-08-03T08:02:58.307Z,120
2022-08-03T08:04:02.074Z,120
2022-08-03T08:05:02.239Z,120
2022-08-03T08:05:58.328Z,120
2022-08-03T08:06:58.806Z,120
2022-08-03T08:08:00.897Z,120
2022-08-03T08:08:58.621Z,120
2022-08-03T08:09:58.623Z,120
2022-08-03T08:11:07.923Z,120
2022-08-03T08:11:59.028Z,120
2022-08-03T08:12:59.037Z,120
2022-08-03T08:13:58.784Z,120
2022-08-03T08:14:58.526Z,120
2022-08-03T08:15:59.684Z,120
2022-08-03T08:16:58.277Z,120
2022-08-03T08:17:58.545Z,120
2022-08-03T08:18:59.059Z,120
2022-08-03T08:20:03.523Z,120
2022-08-03T08:20:59.416Z,120
2022-08-03T08:22:15.088Z,120
2022-08-03T08:23:03.649Z,120
2022-08-03T08:24:15.278Z,120
2022-08-03T08:25:03.521Z,120
2022-08-03T08:25:58.337Z,120
2022-08-03T08:26:58.327Z,120
2022-08-03T08:28:42.023Z,120
2022-08-03T08:30:21.657Z,120
2022-08-03T08:30:58.121Z,120
2022-08-03T08:31:58.358Z,120
2022-08-03T08:32:58.623Z,120
2022-08-03T08:34:13.969Z,120
2022-08-03T08:34:59.290Z,120
2022-08-03T08:35:59.184Z,120
2022-08-03T08:36:58.378Z,120
2022-08-03T08:38:07.694Z,120
2022-08-03T08:38:58.647Z,120
2022-08-03T08:39:58.905Z,120
2022-08-03T08:40:58.653Z,120
2022-08-03T08:42:02.253Z,120
2022-08-03T08:43:09.787Z,120
2022-08-03T08:44:04.665Z,120
2022-08-03T08:44:58.412Z,120
2022-08-03T08:45:58.685Z,120
2022-08-03T08:46:58.669Z,120
2022-08-03T08:48:10.923Z,120
2022-08-03T08:48:58.859Z,120
2022-08-03T08:50:35.078Z,120
2022-08-03T08:50:58.433Z,120
2022-08-03T08:52:34.658Z,120
2022-08-03T08:52:58.946Z,120
2022-08-03T08:53:58.969Z,125
2022-08-03T08:55:00.127Z,125
2022-08-03T08:56:08.736Z,125
2022-08-03T08:56:58.711Z,125
2022-08-03T08:57:58.716Z,125
2022-08-03T08:58:59.151Z,125
2022-08-03T09:00:04.350Z,125
2022-08-03T09:00:59.460Z,125
2022-08-03T09:01:58.737Z,125
2022-08-03T09:02:58.996Z,125
2022-08-03T09:03:58.758Z,125
2022-08-03T09:04:58.990Z,125
2022-08-03T09:06:06.671Z,125
2022-08-03T09:07:27.693Z,125
2022-08-03T09:07:59.269Z,125
2022-08-03T09:08:58.758Z,125
2022-08-03T09:10:20.892Z,125
2022-08-03T09:10:59.270Z,125
2022-08-03T09:12:46.715Z,125
2022-08-03T09:12:59.293Z,130
2022-08-03T09:13:58.768Z,125
2022-08-03T09:15:23.939Z,130
2022-08-03T09:16:10.621Z,130
2022-08-03T09:16:59.292Z,125
2022-08-03T09:18:00.208Z,125
2022-08-03T09:18:58.277Z,125
2022-08-03T09:20:12.591Z,125
2022-08-03T09:21:03.777Z,125
2022-08-03T09:21:58.814Z,125
2022-08-03T09:22:58.795Z,125
2022-08-03T09:24:47.315Z,130
2022-08-03T09:25:32.160Z,130
2022-08-03T09:26:04.501Z,130
2022-08-03T09:27:03.276Z,125
2022-08-03T09:28:01.541Z,125
2022-08-03T09:29:20.141Z,130
2022-08-03T09:30:01.036Z,130
2022-08-03T09:31:01.311Z,130
2022-08-03T09:32:01.643Z,135
2022-08-03T09:33:02.255Z,130
2022-08-03T09:34:00.869Z,130
2022-08-03T09:35:06.120Z,125
2022-08-03T09:36:04.893Z,130
2022-08-03T09:37:00.816Z,125
2022-08-03T09:38:22.711Z,125
2022-08-03T09:39:01.063Z,125
2022-08-03T09:40:02.133Z,125
2022-08-03T09:41:07.628Z,125
2022-08-03T09:42:01.326Z,125
2022-08-03T09:43:01.329Z,125
2022-08-03T09:44:01.079Z,125
2022-08-03T09:45:01.392Z,125
2022-08-03T09:46:01.085Z,125
2022-08-03T09:47:01.437Z,125
2022-08-03T09:48:01.431Z,125
2022-08-03T09:49:01.632Z,125
2022-08-03T09:50:01.100Z,125
2022-08-03T09:52:54.226Z,125
2022-08-03T09:53:04.075Z,125
2022-08-03T09:54:21.246Z,125
2022-08-03T09:55:04.605Z,125
2022-08-03T09:56:44.082Z,125
2022-08-03T09:57:12.363Z,125
2022-08-03T09:58:12.365Z,125
2022-08-03T09:59:11.851Z,120
2022-08-03T10:00:17.685Z,125
2022-08-03T10:01:28.765Z,125
2022-08-03T10:02:11.617Z,125
2022-08-03T10:03:11.615Z,125
2022-08-03T10:04:14.312Z,125
2022-08-03T10:05:17.678Z,125
2022-08-03T10:06:12.140Z,125
2022-08-03T10:07:11.980Z,125
2022-08-03T10:08:12.414Z,125
2022-08-03T10:09:12.413Z,125
2022-08-03T10:10:41.593Z,130
2022-08-03T10:11:12.407Z,130
2022-08-03T10:12:12.158Z,115
2022-08-03T10:13:11.903Z,125
2022-08-03T10:14:12.412Z,125
2022-08-03T10:16:27.941Z,125
2022-08-03T10:16:38.214Z,125
2022-08-03T10:17:44.831Z,130
2022-08-03T10:18:41.032Z,125
2022-08-03T10:19:38.476Z,125
2022-08-03T10:20:38.495Z,115
2022-08-03T10:21:38.771Z,125
2022-08-03T10:22:38.495Z,130
2022-08-03T10:23:42.829Z,130
2022-08-03T10:24:38.754Z,130
2022-08-03T10:25:42.770Z,130
2022-08-03T10:26:38.249Z,130
2022-08-03T10:27:38.262Z,130
2022-08-03T10:28:42.940Z,130
2022-08-03T10:29:38.513Z,130
2022-08-03T10:30:39.093Z,130
2022-08-03T10:31:58.289Z,135
2022-08-03T10:32:38.525Z,135
2022-08-03T10:34:01.567Z,135
2022-08-03T10:34:44.577Z,135
2022-08-03T10:35:38.532Z,135
2022-08-03T10:36:39.994Z,135
2022-08-03T10:37:38.551Z,135
2022-08-03T10:38:38.808Z,110
2022-08-03T10:39:39.084Z,115
2022-08-03T10:41:08.278Z,135
2022-08-03T10:41:38.574Z,135
2022-08-03T10:42:38.561Z,135
2022-08-03T10:43:38.309Z,135
2022-08-03T10:44:38.320Z,135
2022-08-03T10:45:38.823Z,140
2022-08-03T10:46:44.874Z,140
2022-08-03T10:47:38.233Z,145
2022-08-03T10:48:38.746Z,140
2022-08-03T10:49:45.326Z,135
2022-08-03T10:50:39.253Z,135
2022-08-03T10:51:39.109Z,135
2022-08-03T10:52:53.735Z,130
2022-08-03T10:53:39.672Z,130
2022-08-03T10:54:42.391Z,130
2022-08-03T10:55:42.524Z,130
2022-08-03T10:57:03.503Z,130
2022-08-03T10:57:43.336Z,130
2022-08-03T10:58:57.810Z,130
2022-08-03T10:59:39.035Z,130
2022-08-03T11:00:39.046Z,130
2022-08-03T11:02:08.869Z,130
2022-08-03T11:02:38.791Z,130
2022-08-03T11:03:39.302Z,130
2022-08-03T11:04:39.311Z,130
2022-08-03T11:05:40.369Z,125
2022-08-03T11:06:46.572Z,125
2022-08-03T11:07:39.322Z,130
2022-08-03T11:08:39.321Z,130
2022-08-03T11:09:38.811Z,130
2022-08-03T11:10:38.816Z,130
2022-08-03T11:11:39.332Z,125
2022-08-03T11:12:40.303Z,125
2022-08-03T11:13:38.767Z,125
2022-08-03T11:14:39.529Z,125
2022-08-03T11:15:39.126Z,125
2022-08-03T11:16:39.356Z,125
2022-08-03T11:18:01.775Z,125
2022-08-03T11:18:38.597Z,125
2022-08-03T11:20:02.103Z,110
2022-08-03T11:20:38.605Z,120
2022-08-03T11:21:39.612Z,125
2022-08-03T11:22:38.608Z,125
2022-08-03T11:24:13.855Z,125
2022-08-03T11:24:38.877Z,125
2022-08-03T11:26:03.895Z,130
2022-08-03T11:26:38.877Z,130
2022-08-03T11:27:39.395Z,130
2022-08-03T11:28:41.238Z,135
2022-08-03T11:29:39.251Z,135
2022-08-03T11:30:38.906Z,130
2022-08-03T11:32:09.175Z,125
2022-08-03T11:32:38.967Z,125
2022-08-03T11:33:40.671Z,130
2022-08-03T11:34:39.429Z,130
2022-08-03T11:35:38.925Z,135
2022-08-03T11:36:42.594Z,135
2022-08-03T11:38:05.698Z,135
2022-08-03T11:38:38.674Z,135
2022-08-03T11:39:38.934Z,130
2022-08-03T11:40:38.939Z,130
2022-08-03T11:41:49.749Z,130
2022-08-03T11:42:39.456Z,130
2022-08-03T11:43:40.525Z,130
2022-08-03T11:44:38.953Z,130
2022-08-03T11:45:39.221Z,130
2022-08-03T11:46:39.518Z,130
2022-08-03T11:47:52.906Z,130
2022-08-03T11:48:39.561Z,135
2022-08-03T11:49:39.232Z,135
2022-08-03T11:50:39.241Z,135
2022-08-03T11:51:39.235Z,130
2022-08-03T11:52:38.994Z,125
2022-08-03T11:53:46.716Z,125
2022-08-03T11:54:39.400Z,125
2022-08-03T11:55:40.038Z,125
2022-08-03T11:56:42.689Z,130
2022-08-03T11:59:29.878Z,140
2022-08-03T12:00:40.480Z,135
2022-08-03T12:01:41.792Z,130
2022-08-03T12:02:40.422Z,125
2022-08-03T12:03:41.043Z,125
2022-08-03T12:04:40.436Z,125
2022-08-03T12:05:47.999Z,130
2022-08-03T12:06:47.038Z,130
2022-08-03T12:08:13.990Z,135
2022-08-03T12:08:40.461Z,135
2022-08-03T12:09:40.448Z,135
2022-08-03T12:10:40.448Z,130
2022-08-03T12:12:00.017Z,130
2022-08-03T12:12:46.033Z,125
2022-08-03T12:14:59.626Z,125
2022-08-03T12:16:10.619Z,130
2022-08-03T12:17:10.684Z,125
2022-08-03T12:18:15.776Z,125
2022-08-03T12:19:10.186Z,125
2022-08-03T12:20:10.470Z,125
2022-08-03T12:21:10.473Z,120
2022-08-03T12:22:10.192Z,120
2022-08-03T12:23:11.079Z,120
2022-08-03T12:24:10.453Z,120
2022-08-03T12:25:10.197Z,120
2022-08-03T12:26:12.263Z,120
2022-08-03T12:27:10.208Z,120
2022-08-03T12:28:49.702Z,120
2022-08-03T12:29:09.956Z,120
2022-08-03T12:30:10.469Z,120
2022-08-03T12:31:10.010Z,115
2022-08-03T12:32:09.966Z,115
2022-08-03T12:33:10.233Z,115
2022-08-03T12:34:10.240Z,115
2022-08-03T12:35:11.827Z,115
2022-08-03T12:36:10.334Z,115
2022-08-03T12:37:30.875Z,115
2022-08-03T12:38:10.504Z,115
2022-08-03T12:39:10.777Z,115
2022-08-03T12:40:30.104Z,115
2022-08-03T12:41:10.787Z,115
2022-08-03T12:42:10.268Z,115
2022-08-03T12:43:10.279Z,115
2022-08-03T12:44:10.804Z,115
2022-08-03T12:45:10.536Z,115
2022-08-03T12:46:10.283Z,115
2022-08-03T12:47:10.305Z,115
2022-08-03T12:48:10.314Z,115
2022-08-03T12:49:11.388Z,115
2022-08-03T12:50:10.673Z,115
2022-08-03T12:51:10.313Z,115
2022-08-03T12:52:16.241Z,115
2022-08-03T12:53:13.379Z,115
2022-08-03T12:54:10.847Z,115
2022-08-03T12:55:10.841Z,115
2022-08-03T12:56:14.823Z,115
2022-08-03T12:57:11.354Z,115
2022-08-03T12:58:14.690Z,115
2022-08-03T12:59:11.357Z,115
2022-08-03T13:00:34.604Z,120
2022-08-03T13:01:22.216Z,120
2022-08-03T13:02:21.406Z,120
2022-08-03T13:03:55.470Z,125
2022-08-03T13:04:14.375Z,120
2022-08-03T13:05:11.367Z,120
2022-08-03T13:06:11.624Z,120
2022-08-03T13:07:23.640Z,125
2022-08-03T13:08:13.712Z,130
2022-08-03T13:09:11.646Z,130
2022-08-03T13:10:17.655Z,135
2022-08-03T13:11:11.385Z,140
2022-08-03T13:12:14.959Z,145
2022-08-03T13:13:11.916Z,150
2022-08-03T13:14:19.513Z,150
2022-08-03T13:15:11.762Z,155
2022-08-03T13:16:13.580Z,145
2022-08-03T13:17:11.674Z,135
2022-08-03T13:18:11.415Z,155
2022-08-03T13:19:19.782Z,170
2022-08-03T13:20:11.736Z,170
2022-08-03T13:21:11.231Z,175
2022-08-03T13:22:14.175Z,185
2022-08-03T13:23:24.639Z,195
2022-08-03T13:24:13.185Z,210
2022-08-03T13:25:11.775Z,215
2022-08-03T13:26:11.451Z,220
2022-08-03T13:28:19.391Z,200
2022-08-03T13:29:30.200Z,170
2022-08-03T13:30:39.957Z,160
2022-08-03T13:31:32.884Z,150
2022-08-03T13:32:30.468Z,140
2022-08-03T13:33:29.967Z,140
2022-08-03T13:34:32.830Z,150
2022-08-03T13:35:30.221Z,160
2022-08-03T13:37:12.334Z,170
2022-08-03T13:37:31.565Z,170
2022-08-03T13:38:38.228Z,165
2022-08-03T13:40:08.047Z,160
2022-08-03T13:40:49.446Z,160
2022-08-03T13:41:39.905Z,155
2022-08-03T13:42:29.807Z,155
2022-08-03T13:43:30.535Z,150
2022-08-03T13:44:38.849Z,140
2022-08-03T13:45:30.022Z,135
2022-08-03T13:46:29.768Z,135
2022-08-03T13:47:30.941Z,135
2022-08-03T13:48:46.782Z,135
2022-08-03T13:49:30.295Z,135
2022-08-03T13:50:29.534Z,135
2022-08-03T13:51:31.926Z,135
2022-08-03T13:52:30.652Z,135
2022-08-03T13:53:31.013Z,140
2022-08-03T13:54:30.322Z,145
2022-08-03T13:55:30.064Z,150
2022-08-03T13:56:29.821Z,145
2022-08-03T13:58:14.798Z,140
2022-08-03T13:58:30.092Z,140
2022-08-03T13:59:30.625Z,135
2022-08-03T14:00:37.029Z,130
2022-08-03T14:02:03.304Z,125
2022-08-03T14:02:30.465Z,125
2022-08-03T14:03:30.361Z,125
2022-08-03T14:04:30.936Z,125
2022-08-03T14:05:34.279Z,130
2022-08-03T14:06:29.865Z,125
2022-08-03T14:07:30.333Z,125
2022-08-03T14:08:29.872Z,125
2022-08-03T14:09:29.886Z,125
2022-08-03T14:10:29.889Z,125
2022-08-03T14:12:13.972Z,125
2022-08-03T14:12:30.152Z,130
2022-08-03T14:13:30.162Z,125
2022-08-03T14:14:33.544Z,130
2022-08-03T14:15:30.424Z,130
2022-08-03T14:16:31.888Z,130
2022-08-03T14:17:54.380Z,130
2022-08-03T14:18:45.690Z,130
2022-08-03T14:19:54.800Z,130
2022-08-03T14:21:09.412Z,130
2022-08-03T14:21:30.733Z,130
2022-08-03T14:22:30.525Z,125
2022-08-03T14:23:32.378Z,125
2022-08-03T14:24:33.012Z,130
2022-08-03T14:25:30.211Z,125
2022-08-03T14:26:30.224Z,125
2022-08-03T14:27:30.674Z,130
2022-08-03T14:28:30.629Z,135
2022-08-03T14:29:30.497Z,135
2022-08-03T14:30:30.495Z,140
2022-08-03T14:32:20.654Z,130
2022-08-03T14:33:31.208Z,145
2022-08-03T14:34:33.783Z,150
2022-08-03T14:35:30.682Z,150
2022-08-03T14:36:30.696Z,150
2022-08-03T14:37:31.698Z,145
2022-08-03T14:38:30.950Z,145
2022-08-03T14:40:02.179Z,140
2022-08-03T14:40:30.960Z,140
2022-08-03T14:41:31.229Z,140